Las horas y fechas están en horario UTC
Sumar 1 hora en el horario de Invierno y 2 horas en el de Verano

Informes METAR cercanos

 

LEZL - Sevilla (civ/Mil, Spain
Distance from station: NNE 24km
Actualización: 16/06/2019 17:30
Despejado
Despejado
 Viento del SO
Viento: SO 20 km/h
Temperatura: 31°C
Rocío: 12°C
Humedad: 31%
Barómetro: 1016 hPa
Resumen: Despejado
Visibility: greater than 10 km
2019/06/16 15:30 LEZL 161530Z 23011KT 190V280 CAVOK 31/12 Q1016 NOSIG
LEMO - Moron (sp-Usafb), Spain
Distance from station: E 38km
Actualización: 16/06/2019 17:00
Despejado
Despejado
 Viento del OSO
Viento: OSO 20 km/h, Racha: 39 km/h
Temperatura: 29°C
Rocío: 12°C
Humedad: 35%
Barómetro: 1016 hPa
Resumen: Despejado
Visibility: greater than 10 km
2019/06/16 15:00 LEMO 161500Z 24011G21KT 200V270 CAVOK 29/12 Q1016 NOSIG
LEJR - Jerez (civ/Mil), Spain
Distance from station: S 53km
Actualización: 16/06/2019 17:30
Despejado
Despejado
 Viento del SO
Viento: SO 24 km/h
Temperatura: 27°C
Rocío: 9°C
Humedad: 32%
Barómetro: 1017 hPa
Resumen: Despejado
Visibility: greater than 10 km
2019/06/16 15:30 LEJR 161530Z 22013KT 190V250 CAVOK 27/09 Q1017
 
LERT - Rota Naval Stati, Spain
Distance from station: SSO 71km
Actualización: 16/06/2019 17:00
Despejado
Despejado
 Viento del OSO
Viento: OSO 22 km/h
Temperatura: 22°C
Rocío: 14°C
Humedad: 61%
Barómetro: 1017 hPa
Resumen: Despejado
Visibility: greater than 10 km
2019/06/16 15:00 LERT 161500Z 24012KT 220V280 CAVOK 22/14 Q1017 NOSIG
LEBA - Cordoba Airport, Spain
Distance from station: ENE 128km
Actualización: 16/06/2019 17:30
Despejado
Despejado
 Viento del O
Viento: O 11 km/h
Temperatura: 30°C
Rocío: 6°C
Humedad: 22%
Barómetro: 1015 hPa
Resumen: Despejado
Visibility: greater than 10 km
2019/06/16 15:30 LEBA 161530Z 28006KT 220V020 CAVOK 30/06 Q1015
LXGB - Gibraltar (civ/M, Gibraltar
Distance from station: SSE 137km
Actualización: 16/06/2019 17:20
Despejado
Despejado
 Viento del E
Viento: E 17 km/h
Temperatura: 22°C
Rocío: 14°C
Humedad: 61%
Barómetro: 1018 hPa
Resumen: Despejado
Visibility: greater than 10 km
2019/06/16 15:20 LXGB 161520Z 10009KT CAVOK 22/14 Q1018 NOSIG RMK BLU BLU
 
LEMG - Malaga (civ/Mil), Spain
Distance from station: ESE 150km
Actualización: 16/06/2019 17:30
Despejado
Despejado
 Viento del SE
Viento: SE 13 km/h
Temperatura: 24°C
Rocío: 12°C
Humedad: 47%
Barómetro: 1018 hPa
Resumen: Despejado
Visibility: greater than 10 km
2019/06/16 15:30 LEMG 161530Z 14007KT 100V200 CAVOK 24/12 Q1018 NOSIG
GMTT - Tangier/Boukhalf, Morocco
Distance from station: S 169km
Actualización: 16/06/2019 17:30
Few Clouds
Few Clouds
 Viento del NO
Viento: NO 15 km/h
Temperatura: 23°C
Rocío: 14°C
Humedad: 57%
Barómetro: 1018 hPa
Clouds: Few Clouds
Visibility: 10 km
Cloud details: Few Clouds 488 m
2019/06/16 15:30 GMTT 161530Z 31008KT 260V350 9999 FEW016 23/14 Q1018 NOSIG
LPFR - Faro, Portugal
Distance from station: O 172km
Actualización: 16/06/2019 17:30
Despejado
Despejado
 Viento del O
Viento: O 24 km/h
Temperatura: 22°C
Rocío: 12°C
Humedad: 53%
Barómetro: 1017 hPa
Resumen: Despejado
Visibility: greater than 10 km
2019/06/16 15:30 LPFR 161530Z 26013KT CAVOK 22/12 Q1017
 
LPBJ - Beja (por/Ger-Af, Portugal
Distance from station: ONO 192km
Actualización: 16/06/2019 17:00
Despejado
Despejado
 Viento del SO
Viento: SO 13 km/h
Temperatura: 28°C
Rocío: 4°C
Humedad: 21%
Barómetro: 1017 hPa
Resumen: Despejado
Visibility: greater than 10 km
2019/06/16 15:00 LPBJ 161500Z 22007KT 150V280 CAVOK 28/04 Q1017
LEBZ - Talavera Ab/Bada, Spain
Distance from station: NNO 194km
Actualización: 16/06/2019 17:00
Despejado
Despejado
 Viento del ONO
Viento: ONO 9 km/h
Temperatura: 30°C
Rocío: 5°C
Humedad: 20%
Barómetro: 1016 hPa
Resumen: Despejado
Visibility: greater than 10 km
2019/06/16 15:00 LEBZ 161500Z 30005KT CAVOK 30/05 Q1016
LEMD - Madrid/Barajas, Spain
Distance from station: NE 415km
Actualización: 16/06/2019 17:30
Despejado
Despejado
 Viento del OSO
Viento: OSO 13 km/h
Temperatura: 29°C
Rocío: 1°C
Humedad: 16%
Barómetro: 1017 hPa
Resumen: Despejado
Visibility: greater than 10 km
2019/06/16 15:30 LEMD 161530Z 24007KT 170V310 CAVOK 29/01 Q1017 NOSIG